createdAt,value
2022-11-26T00:00:51.442Z,1006
2022-11-26T00:02:07.751Z,1006
2022-11-26T00:03:24.035Z,1006
2022-11-26T00:04:40.326Z,1006
2022-11-26T00:05:56.631Z,1006
2022-11-26T00:07:12.924Z,1006
2022-11-26T00:08:28.225Z,1006
2022-11-26T00:09:44.538Z,1006
2022-11-26T00:11:00.834Z,1006
2022-11-26T00:12:17.112Z,1006
2022-11-26T00:13:33.409Z,1006.1
2022-11-26T00:14:48.723Z,1006.1
2022-11-26T00:16:05.028Z,1006.1
2022-11-26T00:17:21.325Z,1006.1
2022-11-26T00:18:37.606Z,1006.1
2022-11-26T00:19:53.918Z,1006.1
2022-11-26T00:21:10.199Z,1006.1
2022-11-26T00:22:26.505Z,1006.1
2022-11-26T00:23:42.798Z,1006.1
2022-11-26T00:24:59.080Z,1006.1
2022-11-26T00:26:15.377Z,1006.1
2022-11-26T00:27:31.677Z,1006.1
2022-11-26T00:28:47.977Z,1006.1
2022-11-26T00:30:04.271Z,1006.1
2022-11-26T00:31:20.674Z,1006.1
2022-11-26T00:32:36.984Z,1006.2
2022-11-26T00:33:53.273Z,1006.2
2022-11-26T00:35:09.575Z,1006.2
2022-11-26T00:36:25.851Z,1006.2
2022-11-26T00:37:42.158Z,1006.2
2022-11-26T00:38:58.450Z,1006.2
2022-11-26T00:40:14.754Z,1006.2
2022-11-26T00:41:31.049Z,1006.2
2022-11-26T00:42:47.337Z,1006.3
2022-11-26T00:44:03.638Z,1006.3
2022-11-26T00:45:19.916Z,1006.3
2022-11-26T00:47:52.504Z,1006.4
2022-11-26T00:49:08.810Z,1006.4
2022-11-26T00:50:24.112Z,1006.4
2022-11-26T00:51:40.414Z,1006.4
2022-11-26T00:52:56.701Z,1006.4
2022-11-26T00:54:13.002Z,1006.4
2022-11-26T00:55:29.291Z,1006.4
2022-11-26T00:56:45.586Z,1006.4
2022-11-26T00:58:01.880Z,1006.5
2022-11-26T00:59:18.183Z,1006.4
2022-11-26T01:00:34.479Z,1006.5
2022-11-26T01:01:50.771Z,1006.5
2022-11-26T01:03:07.063Z,1006.5
2022-11-26T01:04:23.356Z,1006.6
2022-11-26T01:05:39.651Z,1006.5
2022-11-26T01:06:54.974Z,1006.5
2022-11-26T01:08:11.254Z,1006.6
2022-11-26T01:09:27.549Z,1006.6
2022-11-26T01:10:43.855Z,1006.5
2022-11-26T01:12:00.134Z,1006.5
2022-11-26T01:13:16.431Z,1006.6
2022-11-26T01:14:32.743Z,1006.6
2022-11-26T01:15:49.021Z,1006.6
2022-11-26T01:17:05.315Z,1006.6
2022-11-26T01:18:21.606Z,1006.6
2022-11-26T01:19:37.915Z,1006.6
2022-11-26T01:20:54.209Z,1006.6
2022-11-26T01:23:26.789Z,1006.6
2022-11-26T01:24:42.102Z,1006.6
2022-11-26T01:25:58.401Z,1006.6
2022-11-26T01:27:14.688Z,1006.7
2022-11-26T01:28:30.999Z,1006.7
2022-11-26T01:29:47.292Z,1006.7
2022-11-26T01:31:03.587Z,1006.7
2022-11-26T01:32:19.879Z,1006.7
2022-11-26T01:33:36.178Z,1006.7
2022-11-26T01:34:52.464Z,1006.7
2022-11-26T01:36:08.766Z,1006.7
2022-11-26T01:37:25.046Z,1006.7
2022-11-26T01:38:41.343Z,1006.7
2022-11-26T01:39:57.635Z,1006.8
2022-11-26T01:41:12.956Z,1006.8
2022-11-26T01:42:29.257Z,1006.8
2022-11-26T01:43:45.543Z,1006.8
2022-11-26T01:46:18.132Z,1006.8
2022-11-26T01:47:34.427Z,1006.8
2022-11-26T01:48:50.716Z,1006.8
2022-11-26T01:50:07.023Z,1006.8
2022-11-26T01:51:23.313Z,1006.8
2022-11-26T01:52:39.612Z,1006.8
2022-11-26T01:53:55.900Z,1006.9
2022-11-26T01:55:12.193Z,1006.8
2022-11-26T01:56:28.487Z,1006.9
2022-11-26T01:57:43.792Z,1006.9
2022-11-26T01:59:00.094Z,1006.9
2022-11-26T02:00:16.395Z,1006.9
2022-11-26T02:01:32.674Z,1007
2022-11-26T02:02:48.979Z,1007
2022-11-26T02:04:05.282Z,1007
2022-11-26T02:05:21.571Z,1007.1
2022-11-26T02:06:37.862Z,1007.1
2022-11-26T02:07:54.157Z,1007.1
2022-11-26T02:09:10.447Z,1007.1
2022-11-26T02:10:26.753Z,1007.1
2022-11-26T02:11:43.037Z,1007.1
2022-11-26T02:12:59.337Z,1007.1
2022-11-26T02:14:15.743Z,1007.1
2022-11-26T02:15:32.042Z,1007.1
2022-11-26T02:16:48.338Z,1007.2
2022-11-26T02:19:20.924Z,1007.1
2022-11-26T02:20:37.233Z,1007.1
2022-11-26T02:21:53.515Z,1007.1
2022-11-26T02:24:26.117Z,1007.2
2022-11-26T02:25:42.398Z,1007.3
2022-11-26T02:26:58.704Z,1007.3
2022-11-26T02:28:14.982Z,1007.3
2022-11-26T02:29:31.290Z,1007.2
2022-11-26T02:30:46.599Z,1007.3
2022-11-26T02:32:02.883Z,1007.4
2022-11-26T02:33:19.177Z,1007.3
2022-11-26T02:34:35.476Z,1007.4
2022-11-26T02:35:51.767Z,1007.4
2022-11-26T02:38:24.365Z,1007.4
2022-11-26T02:40:56.946Z,1007.5
2022-11-26T02:42:12.273Z,1007.5
2022-11-26T02:43:27.579Z,1007.5
2022-11-26T02:44:43.878Z,1007.5
2022-11-26T02:46:00.175Z,1007.5
2022-11-26T02:47:16.459Z,1007.5
2022-11-26T02:48:32.767Z,1007.5
2022-11-26T02:49:49.047Z,1007.5
2022-11-26T02:51:05.354Z,1007.5
2022-11-26T02:52:21.640Z,1007.5
2022-11-26T02:53:37.936Z,1007.5
2022-11-26T02:54:54.225Z,1007.5
2022-11-26T02:56:09.547Z,1007.5
2022-11-26T02:57:24.855Z,1007.5
2022-11-26T02:58:41.147Z,1007.4
2022-11-26T02:59:57.443Z,1007.5
2022-11-26T03:02:30.032Z,1007.5
2022-11-26T03:03:46.321Z,1007.6
2022-11-26T03:05:02.632Z,1007.6
2022-11-26T03:06:18.913Z,1007.6
2022-11-26T03:07:35.225Z,1007.6
2022-11-26T03:08:51.507Z,1007.6
2022-11-26T03:10:07.802Z,1007.6
2022-11-26T03:11:24.097Z,1007.6
2022-11-26T03:12:40.393Z,1007.6
2022-11-26T03:13:55.708Z,1007.7
2022-11-26T03:15:11.996Z,1007.7
2022-11-26T03:16:28.295Z,1007.7
2022-11-26T03:17:44.583Z,1007.7
2022-11-26T03:19:00.879Z,1007.7
2022-11-26T03:20:17.187Z,1007.7
2022-11-26T03:21:33.467Z,1007.7
2022-11-26T03:22:49.759Z,1007.7
2022-11-26T03:24:06.065Z,1007.7
2022-11-26T03:25:22.362Z,1007.8
2022-11-26T03:26:38.655Z,1007.8
2022-11-26T03:27:54.935Z,1007.9
2022-11-26T03:29:11.249Z,1007.8
2022-11-26T03:30:26.550Z,1007.9
2022-11-26T03:31:42.855Z,1007.9
2022-11-26T03:32:59.141Z,1007.9
2022-11-26T03:34:15.429Z,1008
2022-11-26T03:35:31.725Z,1008
2022-11-26T03:36:48.029Z,1008
2022-11-26T03:38:04.324Z,1008
2022-11-26T03:39:20.608Z,1008
2022-11-26T03:40:36.910Z,1008
2022-11-26T03:41:53.193Z,1008
2022-11-26T03:43:09.493Z,1008
2022-11-26T03:44:25.787Z,1008
2022-11-26T03:45:42.087Z,1008.1
2022-11-26T03:46:58.376Z,1008.1
2022-11-26T03:48:13.685Z,1008.1
2022-11-26T03:49:29.986Z,1008.1
2022-11-26T03:50:46.284Z,1008.1
2022-11-26T03:52:02.567Z,1008.1
2022-11-26T03:53:18.875Z,1008.1
2022-11-26T03:54:35.161Z,1008.1
2022-11-26T03:55:51.462Z,1008.1
2022-11-26T03:57:07.749Z,1008.2
2022-11-26T03:58:24.042Z,1008.2
2022-11-26T03:59:40.338Z,1008.1
2022-11-26T04:00:56.635Z,1008.2
2022-11-26T04:02:12.931Z,1008.2
2022-11-26T04:03:29.232Z,1008.2
2022-11-26T04:04:44.538Z,1008.2
2022-11-26T04:06:00.831Z,1008.2
2022-11-26T04:07:17.131Z,1008.2
2022-11-26T04:08:33.417Z,1008.2
2022-11-26T04:09:49.721Z,1008.2
2022-11-26T04:11:06.012Z,1008.2
2022-11-26T04:12:22.301Z,1008.3
2022-11-26T04:13:38.591Z,1008.3
2022-11-26T04:14:54.890Z,1008.3
2022-11-26T04:16:11.192Z,1008.3
2022-11-26T04:17:27.488Z,1008.3
2022-11-26T04:18:43.784Z,1008.3
2022-11-26T04:20:00.070Z,1008.4
2022-11-26T04:21:15.375Z,1008.4
2022-11-26T04:22:31.672Z,1008.4
2022-11-26T04:23:47.970Z,1008.4
2022-11-26T04:25:04.271Z,1008.4
2022-11-26T04:26:20.552Z,1008.5
2022-11-26T04:27:36.860Z,1008.5
2022-11-26T04:28:53.150Z,1008.5
2022-11-26T04:30:09.453Z,1008.6
2022-11-26T04:31:24.757Z,1008.6
2022-11-26T04:32:41.060Z,1008.6
2022-11-26T04:33:57.348Z,1008.6
2022-11-26T04:35:13.652Z,1008.6
2022-11-26T04:36:29.946Z,1008.6
2022-11-26T04:37:46.245Z,1008.6
2022-11-26T04:39:02.538Z,1008.6
2022-11-26T04:40:18.831Z,1008.6
2022-11-26T04:41:35.124Z,1008.6
2022-11-26T04:42:51.416Z,1008.6
2022-11-26T04:44:07.699Z,1008.7
2022-11-26T04:45:24.012Z,1008.7
2022-11-26T04:46:40.298Z,1008.7
2022-11-26T04:47:55.599Z,1008.7
2022-11-26T04:49:11.896Z,1008.8
2022-11-26T04:50:28.199Z,1008.8
2022-11-26T04:51:44.496Z,1008.8
2022-11-26T04:53:00.787Z,1008.9
2022-11-26T04:54:17.083Z,1008.9
2022-11-26T04:55:33.374Z,1008.9
2022-11-26T04:56:49.677Z,1008.9
2022-11-26T04:58:05.962Z,1008.9
2022-11-26T04:59:22.264Z,1008.9
2022-11-26T05:00:38.551Z,1008.9
2022-11-26T05:01:54.853Z,1008.9
2022-11-26T05:03:11.140Z,1009
2022-11-26T05:04:26.448Z,1009
2022-11-26T05:05:42.743Z,1009
2022-11-26T05:06:59.049Z,1009
2022-11-26T05:08:15.335Z,1009
2022-11-26T05:09:31.623Z,1009
2022-11-26T05:10:47.928Z,1009
2022-11-26T05:12:04.217Z,1009
2022-11-26T05:13:20.521Z,1009
2022-11-26T05:14:36.817Z,1009
2022-11-26T05:15:53.107Z,1009.1
2022-11-26T05:17:09.400Z,1009.1
2022-11-26T05:18:25.695Z,1009.1
2022-11-26T05:19:41.999Z,1009.2
2022-11-26T05:20:58.274Z,1009.2
2022-11-26T05:22:13.589Z,1009.2
2022-11-26T05:23:29.894Z,1009.1
2022-11-26T05:24:46.193Z,1009.2
2022-11-26T05:26:02.486Z,1009.2
2022-11-26T05:27:18.769Z,1009.2
2022-11-26T05:28:35.069Z,1009.3
2022-11-26T05:29:51.356Z,1009.3
2022-11-26T05:31:07.658Z,1009.3
2022-11-26T05:32:23.942Z,1009.3
2022-11-26T05:33:40.236Z,1009.3
2022-11-26T05:34:56.534Z,1009.3
2022-11-26T05:36:12.833Z,1009.3
2022-11-26T05:37:29.130Z,1009.3
2022-11-26T05:38:44.442Z,1009.4
2022-11-26T05:40:00.729Z,1009.3
2022-11-26T05:41:17.036Z,1009.4
2022-11-26T05:42:33.325Z,1009.4
2022-11-26T05:43:49.626Z,1009.4
2022-11-26T05:45:05.920Z,1009.5
2022-11-26T05:46:22.211Z,1009.4
2022-11-26T05:47:38.507Z,1009.5
2022-11-26T05:48:54.805Z,1009.5
2022-11-26T05:50:11.091Z,1009.6
2022-11-26T05:51:27.387Z,1009.6
2022-11-26T05:52:43.683Z,1009.6
2022-11-26T05:53:59.980Z,1009.6
2022-11-26T05:55:15.292Z,1009.7
2022-11-26T05:56:31.588Z,1009.7
2022-11-26T05:57:47.880Z,1009.6
2022-11-26T05:59:04.181Z,1009.7
2022-11-26T06:00:20.468Z,1009.8
2022-11-26T06:01:36.766Z,1009.8
2022-11-26T06:02:53.054Z,1009.8
2022-11-26T06:04:09.353Z,1009.8
2022-11-26T06:05:25.600Z,1009.8
2022-11-26T06:06:41.890Z,1009.8
2022-11-26T06:07:58.188Z,1009.8
2022-11-26T06:09:14.425Z,1009.9
2022-11-26T06:10:30.668Z,1009.9
2022-11-26T06:13:03.226Z,1009.9
2022-11-26T06:14:18.488Z,1009.9
2022-11-26T06:15:34.712Z,1009.9
2022-11-26T06:16:50.964Z,1009.9
2022-11-26T06:18:07.198Z,1009.9
2022-11-26T06:19:23.436Z,1010
2022-11-26T06:20:39.675Z,1010
2022-11-26T06:21:55.926Z,1010
2022-11-26T06:23:12.152Z,1010
2022-11-26T06:24:28.406Z,1010
2022-11-26T06:25:44.652Z,1010
2022-11-26T06:27:00.875Z,1010
2022-11-26T06:28:17.132Z,1010.1
2022-11-26T06:29:33.368Z,1010.1
2022-11-26T06:30:48.633Z,1010.1
2022-11-26T06:32:04.867Z,1010.1
2022-11-26T06:33:21.111Z,1010.1
2022-11-26T06:34:37.343Z,1010.2
2022-11-26T06:35:53.592Z,1010.1
2022-11-26T06:37:09.820Z,1010.2
2022-11-26T06:38:26.067Z,1010.3
2022-11-26T06:39:42.300Z,1010.2
2022-11-26T06:40:58.539Z,1010.2
2022-11-26T06:42:14.786Z,1010.3
2022-11-26T06:43:31.035Z,1010.2
2022-11-26T06:44:47.280Z,1010.2
2022-11-26T06:46:03.512Z,1010.3
2022-11-26T06:47:18.774Z,1010.3
2022-11-26T06:48:35.014Z,1010.2
2022-11-26T06:49:51.255Z,1010.2
2022-11-26T06:51:07.487Z,1010.3
2022-11-26T06:52:23.734Z,1010.3
2022-11-26T06:53:39.981Z,1010.3
2022-11-26T06:54:56.204Z,1010.3
2022-11-26T06:56:12.455Z,1010.3
2022-11-26T06:58:44.934Z,1010.4
2022-11-26T07:00:01.166Z,1010.4
2022-11-26T07:01:17.418Z,1010.4
2022-11-26T07:02:33.665Z,1010.4
2022-11-26T07:03:48.905Z,1010.4
2022-11-26T07:05:05.161Z,1010.4
2022-11-26T07:06:21.393Z,1010.4
2022-11-26T07:07:37.643Z,1010.4
2022-11-26T07:08:53.876Z,1010.5
2022-11-26T07:10:10.115Z,1010.5
2022-11-26T07:11:26.361Z,1010.5
2022-11-26T07:13:58.848Z,1010.5
2022-11-26T07:15:15.069Z,1010.6
2022-11-26T07:16:31.311Z,1010.6
2022-11-26T07:17:47.550Z,1010.6
2022-11-26T07:19:03.800Z,1010.6
2022-11-26T07:20:19.062Z,1010.7
2022-11-26T07:21:35.289Z,1010.7
2022-11-26T07:24:07.773Z,1010.7
2022-11-26T07:25:23.035Z,1010.7
2022-11-26T07:29:10.782Z,1010.8
2022-11-26T07:30:27.015Z,1010.8
2022-11-26T07:31:43.250Z,1010.8
2022-11-26T07:34:15.746Z,1010.8
2022-11-26T07:36:48.222Z,1010.8
2022-11-26T07:38:04.456Z,1010.8
2022-11-26T07:39:20.699Z,1010.8
2022-11-26T07:40:36.942Z,1010.8
2022-11-26T07:41:53.189Z,1010.8
2022-11-26T07:43:08.444Z,1010.8
2022-11-26T07:44:23.700Z,1010.8
2022-11-26T07:45:38.973Z,1010.8
2022-11-26T07:46:55.206Z,1010.9
2022-11-26T07:48:11.441Z,1010.9
2022-11-26T07:49:27.688Z,1010.9
2022-11-26T07:50:43.917Z,1010.9
2022-11-26T07:52:00.176Z,1010.9
2022-11-26T07:53:16.413Z,1010.8
2022-11-26T07:54:32.657Z,1010.9
2022-11-26T07:55:48.881Z,1010.9
2022-11-26T07:57:05.126Z,1010.9
2022-11-26T07:58:20.391Z,1010.9
2022-11-26T07:59:35.656Z,1010.8
2022-11-26T08:00:51.879Z,1010.8
2022-11-26T08:02:08.125Z,1010.9
2022-11-26T08:03:24.371Z,1010.9
2022-11-26T08:04:40.615Z,1010.9
2022-11-26T08:05:56.840Z,1010.9
2022-11-26T08:07:13.082Z,1010.9
2022-11-26T08:08:29.328Z,1010.9
2022-11-26T08:09:45.571Z,1010.9
2022-11-26T08:11:01.815Z,1010.9
2022-11-26T08:12:17.082Z,1011
2022-11-26T08:13:32.322Z,1011
2022-11-26T08:14:48.580Z,1011
2022-11-26T08:16:04.809Z,1011
2022-11-26T08:17:21.049Z,1010.9
2022-11-26T08:18:37.295Z,1011
2022-11-26T08:19:53.527Z,1011
2022-11-26T08:21:09.767Z,1011
2022-11-26T08:22:26.010Z,1011
2022-11-26T08:23:42.250Z,1011.1
2022-11-26T08:24:58.490Z,1011
2022-11-26T08:26:14.724Z,1011.1
2022-11-26T08:27:30.981Z,1011.1
2022-11-26T08:28:47.218Z,1011.1
2022-11-26T08:30:02.462Z,1011.1
2022-11-26T08:31:18.718Z,1011.1
2022-11-26T08:32:34.951Z,1011.1
2022-11-26T08:35:07.444Z,1011.1
2022-11-26T08:36:23.665Z,1011.1
2022-11-26T08:37:39.908Z,1011.1
2022-11-26T08:38:56.159Z,1011.1
2022-11-26T08:40:12.000Z,1011.1
2022-11-26T08:41:28.632Z,1011.1
2022-11-26T08:42:44.880Z,1011.2
2022-11-26T08:44:01.115Z,1011.1
2022-11-26T08:45:17.351Z,1011.2
2022-11-26T08:46:32.623Z,1011.2
2022-11-26T08:47:48.859Z,1011.2
2022-11-26T08:49:05.106Z,1011.3
2022-11-26T08:50:21.337Z,1011.3
2022-11-26T08:51:37.577Z,1011.3
2022-11-26T08:52:53.810Z,1011.3
2022-11-26T08:54:10.053Z,1011.3
2022-11-26T08:55:26.305Z,1011.3
2022-11-26T08:56:42.542Z,1011.3
2022-11-26T08:57:58.772Z,1011.3
2022-11-26T09:00:31.256Z,1011.3
2022-11-26T09:01:47.503Z,1011.3
2022-11-26T09:03:02.749Z,1011.3
2022-11-26T09:04:19.005Z,1011.4
2022-11-26T09:05:35.248Z,1011.4
2022-11-26T09:06:51.473Z,1011.4
2022-11-26T09:08:07.715Z,1011.4
2022-11-26T09:09:23.958Z,1011.5
2022-11-26T09:11:56.439Z,1011.4
2022-11-26T09:13:12.689Z,1011.5
2022-11-26T09:14:28.914Z,1011.5
2022-11-26T09:15:45.151Z,1011.5
2022-11-26T09:17:01.408Z,1011.5
2022-11-26T09:19:33.889Z,1011.6
2022-11-26T09:20:49.146Z,1011.6
2022-11-26T09:23:20.629Z,1011.5
2022-11-26T09:24:36.873Z,1011.6
2022-11-26T09:25:53.126Z,1011.6
2022-11-26T09:27:09.363Z,1011.6
2022-11-26T09:28:25.591Z,1011.6
2022-11-26T09:29:41.840Z,1011.6
2022-11-26T09:30:58.079Z,1011.6
2022-11-26T09:32:14.314Z,1011.6
2022-11-26T09:33:30.553Z,1011.7
2022-11-26T09:34:46.799Z,1011.7
2022-11-26T09:36:02.068Z,1011.7
2022-11-26T09:37:17.307Z,1011.7
2022-11-26T09:38:33.551Z,1011.6
2022-11-26T09:39:49.798Z,1011.7
2022-11-26T09:41:06.035Z,1011.7
2022-11-26T09:42:22.267Z,1011.6
2022-11-26T09:43:38.525Z,1011.7
2022-11-26T09:46:11.003Z,1011.7
2022-11-26T09:47:27.234Z,1011.7
2022-11-26T09:48:43.483Z,1011.7
2022-11-26T09:49:59.720Z,1011.7
2022-11-26T09:51:15.951Z,1011.7
2022-11-26T09:52:32.188Z,1011.7
2022-11-26T09:53:47.463Z,1011.7
2022-11-26T09:55:03.686Z,1011.7
2022-11-26T09:56:19.934Z,1011.8
2022-11-26T09:57:36.171Z,1011.8
2022-11-26T09:58:52.403Z,1011.8
2022-11-26T10:01:24.891Z,1011.8
2022-11-26T10:02:41.284Z,1011.8
2022-11-26T10:03:56.533Z,1011.7
2022-11-26T10:05:12.769Z,1011.8
2022-11-26T10:06:29.005Z,1011.7
2022-11-26T10:07:45.240Z,1011.8
2022-11-26T10:09:01.499Z,1011.8
2022-11-26T10:10:17.735Z,1011.8
2022-11-26T10:11:33.972Z,1011.8
2022-11-26T10:12:50.219Z,1011.8
2022-11-26T10:14:06.445Z,1011.8
2022-11-26T10:15:22.691Z,1011.8
2022-11-26T10:16:38.924Z,1011.8
2022-11-26T10:17:54.195Z,1011.8
2022-11-26T10:19:09.455Z,1011.9
2022-11-26T10:20:25.681Z,1011.9
2022-11-26T10:21:41.930Z,1011.9
2022-11-26T10:22:58.171Z,1011.9
2022-11-26T10:24:14.416Z,1011.8
2022-11-26T10:25:30.640Z,1011.9
2022-11-26T10:26:46.891Z,1011.9
2022-11-26T10:28:03.136Z,1011.8
2022-11-26T10:29:19.363Z,1011.8
2022-11-26T10:30:35.604Z,1011.8
2022-11-26T10:31:51.844Z,1011.9
2022-11-26T10:33:08.088Z,1011.9
2022-11-26T10:34:24.321Z,1011.9
2022-11-26T10:35:39.573Z,1011.9
2022-11-26T10:36:55.826Z,1011.8
2022-11-26T10:39:28.308Z,1011.9
2022-11-26T10:40:44.537Z,1011.9
2022-11-26T10:42:00.784Z,1011.9
2022-11-26T10:43:17.023Z,1011.9
2022-11-26T10:44:33.258Z,1011.9
2022-11-26T10:45:49.500Z,1012
2022-11-26T10:47:05.746Z,1011.9
2022-11-26T10:48:21.989Z,1012
2022-11-26T10:49:38.218Z,1012
2022-11-26T10:50:54.453Z,1012
2022-11-26T10:52:09.722Z,1012
2022-11-26T10:53:25.957Z,1012
2022-11-26T10:54:42.208Z,1012
2022-11-26T10:55:58.429Z,1012
2022-11-26T10:57:14.675Z,1012
2022-11-26T10:58:30.906Z,1011.9
2022-11-26T10:59:47.157Z,1012
2022-11-26T11:01:03.401Z,1011.9
2022-11-26T11:02:19.629Z,1011.9
2022-11-26T11:03:35.877Z,1012
2022-11-26T11:04:52.108Z,1011.9
2022-11-26T11:06:08.363Z,1011.9
2022-11-26T11:07:24.604Z,1011.9
2022-11-26T11:08:39.847Z,1011.9
2022-11-26T11:09:56.087Z,1011.9
2022-11-26T11:11:12.327Z,1011.9
2022-11-26T11:12:28.578Z,1011.9
2022-11-26T11:13:44.812Z,1011.8
2022-11-26T11:15:01.042Z,1011.9
2022-11-26T11:16:17.290Z,1011.8
2022-11-26T11:17:33.533Z,1011.8
2022-11-26T11:18:49.768Z,1011.8
2022-11-26T11:20:06.011Z,1011.8
2022-11-26T11:21:22.249Z,1011.8
2022-11-26T11:22:38.499Z,1011.8
2022-11-26T11:23:54.721Z,1011.8
2022-11-26T11:25:09.976Z,1011.9
2022-11-26T11:26:26.232Z,1011.9
2022-11-26T11:27:42.462Z,1012
2022-11-26T11:28:58.696Z,1012
2022-11-26T11:30:14.944Z,1012
2022-11-26T11:31:31.182Z,1012
2022-11-26T11:32:47.435Z,1012
2022-11-26T11:34:03.662Z,1012
2022-11-26T11:35:19.909Z,1012
2022-11-26T11:36:36.152Z,1012
2022-11-26T11:37:52.393Z,1012
2022-11-26T11:39:08.617Z,1012
2022-11-26T11:40:24.866Z,1012
2022-11-26T11:41:40.112Z,1011.9
2022-11-26T11:42:56.367Z,1011.9
2022-11-26T11:44:12.589Z,1012
2022-11-26T11:45:28.000Z,1012
2022-11-26T11:46:45.084Z,1012
2022-11-26T11:48:01.318Z,1012
2022-11-26T11:49:17.566Z,1012
2022-11-26T11:50:33.797Z,1012.1
2022-11-26T11:51:50.034Z,1012.1
2022-11-26T11:53:06.281Z,1012.1
2022-11-26T11:54:22.525Z,1012
2022-11-26T11:55:38.765Z,1012
2022-11-26T11:56:54.991Z,1012
2022-11-26T11:58:10.260Z,1012
2022-11-26T11:59:26.485Z,1012
2022-11-26T12:00:42.727Z,1012
2022-11-26T12:01:58.968Z,1012
2022-11-26T12:03:15.205Z,1012
2022-11-26T12:04:31.450Z,1012
2022-11-26T12:05:47.693Z,1011.9
2022-11-26T12:07:03.922Z,1012
2022-11-26T12:08:20.163Z,1012
2022-11-26T12:09:36.418Z,1012
2022-11-26T12:10:52.653Z,1012
2022-11-26T12:12:08.896Z,1012
2022-11-26T12:13:25.122Z,1012
2022-11-26T12:14:40.387Z,1012
2022-11-26T12:15:56.636Z,1012.1
2022-11-26T12:17:12.868Z,1012.1
2022-11-26T12:18:29.117Z,1012.1
2022-11-26T12:19:45.338Z,1012
2022-11-26T12:21:01.578Z,1012
2022-11-26T12:22:17.827Z,1012
2022-11-26T12:23:34.078Z,1012.1
2022-11-26T12:24:50.308Z,1012.1
2022-11-26T12:26:06.542Z,1012.1
2022-11-26T12:27:22.781Z,1012
2022-11-26T12:28:39.026Z,1012.1
2022-11-26T12:29:55.276Z,1012.1
2022-11-26T12:31:10.520Z,1012.1
2022-11-26T12:32:26.761Z,1012
2022-11-26T12:33:43.011Z,1012.1
2022-11-26T12:36:15.480Z,1012.1
2022-11-26T12:37:31.722Z,1012.1
2022-11-26T12:38:47.966Z,1012.1
2022-11-26T12:40:04.211Z,1012.1
2022-11-26T12:41:20.454Z,1012.1
2022-11-26T12:42:36.692Z,1012.1
2022-11-26T12:43:52.930Z,1012.2
2022-11-26T12:45:09.173Z,1012.1
2022-11-26T12:46:25.401Z,1012.2
2022-11-26T12:47:40.660Z,1012.2
2022-11-26T12:48:56.899Z,1012.2
2022-11-26T12:50:13.143Z,1012.2
2022-11-26T12:51:29.387Z,1012.2
2022-11-26T12:52:45.620Z,1012.2
2022-11-26T12:54:01.863Z,1012.2
2022-11-26T12:56:34.341Z,1012.1
2022-11-26T12:57:50.580Z,1012.1
2022-11-26T12:59:06.820Z,1012.1
2022-11-26T13:00:23.047Z,1012.2
2022-11-26T13:01:38.330Z,1012.1
2022-11-26T13:02:54.550Z,1012.1
2022-11-26T13:04:10.806Z,1012.1
2022-11-26T13:05:27.050Z,1012.1
2022-11-26T13:06:43.272Z,1012.1
2022-11-26T13:07:59.511Z,1012
2022-11-26T13:09:15.761Z,1012.1
2022-11-26T13:10:31.992Z,1012
2022-11-26T13:11:48.239Z,1012.1
2022-11-26T13:13:04.489Z,1012
2022-11-26T13:14:20.726Z,1012.1
2022-11-26T13:15:36.971Z,1012
2022-11-26T13:16:53.193Z,1012.1
2022-11-26T13:18:08.457Z,1012.1
2022-11-26T13:19:24.700Z,1012.1
2022-11-26T13:20:40.941Z,1012.1
2022-11-26T13:21:57.172Z,1012.1
2022-11-26T13:23:13.414Z,1012.1
2022-11-26T13:24:29.662Z,1012.1
2022-11-26T13:25:45.889Z,1012.1
2022-11-26T13:27:02.137Z,1012.1
2022-11-26T13:28:18.373Z,1012
2022-11-26T13:29:34.627Z,1012
2022-11-26T13:30:50.855Z,1012
2022-11-26T13:32:07.092Z,1012
2022-11-26T13:33:23.334Z,1012
2022-11-26T13:34:38.604Z,1012
2022-11-26T13:35:54.835Z,1012
2022-11-26T13:37:11.077Z,1012.1
2022-11-26T13:38:27.324Z,1012.1
2022-11-26T13:39:43.545Z,1012
2022-11-26T13:40:59.798Z,1012
2022-11-26T13:42:16.043Z,1012
2022-11-26T13:43:32.283Z,1012
2022-11-26T13:44:48.505Z,1012
2022-11-26T13:46:04.761Z,1012
2022-11-26T13:47:20.986Z,1012
2022-11-26T13:48:37.233Z,1012
2022-11-26T13:49:53.472Z,1012.1
2022-11-26T13:51:08.734Z,1012.1
2022-11-26T13:52:24.977Z,1012.1
2022-11-26T13:53:41.218Z,1012.1
2022-11-26T13:54:57.459Z,1012.1
2022-11-26T13:56:13.695Z,1012.1
2022-11-26T13:57:29.938Z,1012.2
2022-11-26T13:58:46.175Z,1012.1
2022-11-26T14:00:02.402Z,1012.1
2022-11-26T14:02:34.895Z,1012.2
2022-11-26T14:03:51.135Z,1012.1
2022-11-26T14:05:07.358Z,1012.2
2022-11-26T14:06:23.608Z,1012.3
2022-11-26T14:07:38.863Z,1012.2
2022-11-26T14:08:55.110Z,1012.2
2022-11-26T14:10:11.343Z,1012.2
2022-11-26T14:11:27.575Z,1012.2
2022-11-26T14:12:43.833Z,1012.2
2022-11-26T14:14:00.071Z,1012.2
2022-11-26T14:15:16.301Z,1012.2
2022-11-26T14:16:32.544Z,1012.2
2022-11-26T14:17:48.780Z,1012.3
2022-11-26T14:19:05.023Z,1012.2
2022-11-26T14:20:21.256Z,1012.2
2022-11-26T14:21:37.507Z,1012.2
2022-11-26T14:22:53.753Z,1012.2
2022-11-26T14:24:08.998Z,1012.2
2022-11-26T14:25:25.249Z,1012.2
2022-11-26T14:26:41.469Z,1012.2
2022-11-26T14:27:57.725Z,1012.2
2022-11-26T14:29:13.966Z,1012.2
2022-11-26T14:30:30.204Z,1012.3
2022-11-26T14:31:46.446Z,1012.3
2022-11-26T14:33:02.677Z,1012.2
2022-11-26T14:34:18.919Z,1012.2
2022-11-26T14:35:35.170Z,1012.3
2022-11-26T14:36:51.392Z,1012.3
2022-11-26T14:38:07.650Z,1012.3
2022-11-26T14:39:23.880Z,1012.3
2022-11-26T14:40:39.129Z,1012.3
2022-11-26T14:41:55.374Z,1012.3
2022-11-26T14:43:11.623Z,1012.3
2022-11-26T14:44:27.864Z,1012.3
2022-11-26T14:45:44.108Z,1012.3
2022-11-26T14:47:00.341Z,1012.3
2022-11-26T14:48:16.568Z,1012.3
2022-11-26T14:49:32.819Z,1012.3
2022-11-26T14:50:49.067Z,1012.4
2022-11-26T14:52:05.293Z,1012.3
2022-11-26T14:53:21.540Z,1012.3
2022-11-26T14:54:37.775Z,1012.4
2022-11-26T14:55:54.016Z,1012.4
2022-11-26T14:57:10.388Z,1012.4
2022-11-26T14:58:26.614Z,1012.4
2022-11-26T14:59:42.850Z,1012.4
2022-11-26T15:00:59.089Z,1012.4
2022-11-26T15:02:15.335Z,1012.4
2022-11-26T15:03:31.575Z,1012.4
2022-11-26T15:06:04.055Z,1012.3
2022-11-26T15:07:20.296Z,1012.3
2022-11-26T15:08:36.545Z,1012.3
2022-11-26T15:09:52.793Z,1012.3
2022-11-26T15:11:09.026Z,1012.3
2022-11-26T15:12:25.262Z,1012.3
2022-11-26T15:13:40.526Z,1012.2
2022-11-26T15:14:56.761Z,1012.2
2022-11-26T15:16:13.010Z,1012.2
2022-11-26T15:17:29.251Z,1012.3
2022-11-26T15:18:45.479Z,1012.3
2022-11-26T15:20:01.723Z,1012.3
2022-11-26T15:21:17.971Z,1012.3
2022-11-26T15:23:50.440Z,1012.3
2022-11-26T15:25:06.684Z,1012.3
2022-11-26T15:26:22.928Z,1012.3
2022-11-26T15:27:39.158Z,1012.3
2022-11-26T15:28:55.397Z,1012.3
2022-11-26T15:30:10.665Z,1012.3
2022-11-26T15:31:26.899Z,1012.3
2022-11-26T15:32:43.145Z,1012.3
2022-11-26T15:33:59.387Z,1012.3
2022-11-26T15:36:31.863Z,1012.3
2022-11-26T15:37:48.107Z,1012.3
2022-11-26T15:39:04.347Z,1012.3
2022-11-26T15:40:20.589Z,1012.3
2022-11-26T15:41:36.834Z,1012.3
2022-11-26T15:44:09.301Z,1012.4
2022-11-26T15:45:24.576Z,1012.4
2022-11-26T15:46:39.888Z,1012.4
2022-11-26T15:47:56.166Z,1012.4
2022-11-26T15:49:12.471Z,1012.5
2022-11-26T15:50:28.760Z,1012.5
2022-11-26T15:51:45.069Z,1012.4
2022-11-26T15:53:01.343Z,1012.5
2022-11-26T15:54:17.628Z,1012.4
2022-11-26T15:55:33.931Z,1012.4
2022-11-26T15:56:50.216Z,1012.5
2022-11-26T15:58:06.520Z,1012.4
2022-11-26T15:59:22.810Z,1012.5
2022-11-26T16:00:38.129Z,1012.5
2022-11-26T16:01:53.444Z,1012.5
2022-11-26T16:03:09.723Z,1012.5
2022-11-26T16:04:26.026Z,1012.5
2022-11-26T16:05:42.322Z,1012.5
2022-11-26T16:06:58.602Z,1012.6
2022-11-26T16:08:14.913Z,1012.6
2022-11-26T16:09:31.207Z,1012.6
2022-11-26T16:10:47.488Z,1012.6
2022-11-26T16:12:03.789Z,1012.6
2022-11-26T16:13:20.090Z,1012.7
2022-11-26T16:14:36.383Z,1012.7
2022-11-26T16:15:52.666Z,1012.7
2022-11-26T16:17:08.964Z,1012.7
2022-11-26T16:18:24.287Z,1012.7
2022-11-26T16:19:40.567Z,1012.7
2022-11-26T16:20:56.870Z,1012.7
2022-11-26T16:22:13.164Z,1012.7
2022-11-26T16:23:29.456Z,1012.7
2022-11-26T16:24:45.754Z,1012.7
2022-11-26T16:26:02.052Z,1012.8
2022-11-26T16:27:18.337Z,1012.8
2022-11-26T16:28:34.631Z,1012.8
2022-11-26T16:29:50.926Z,1012.7
2022-11-26T16:31:07.220Z,1012.8
2022-11-26T16:32:23.510Z,1012.7
2022-11-26T16:33:39.807Z,1012.8
2022-11-26T16:34:55.123Z,1012.8
2022-11-26T16:37:27.721Z,1012.8
2022-11-26T16:38:44.008Z,1012.8
2022-11-26T16:40:00.306Z,1012.8